createdAt,value
2023-02-08T00:00:11.961Z,-3.13
2023-02-08T00:02:39.477Z,-2.99
2023-02-08T00:05:06.835Z,-2.51
2023-02-08T00:07:33.976Z,-3.46
2023-02-08T00:10:02.841Z,-3.37
2023-02-08T00:12:29.998Z,-2.89
2023-02-08T00:14:57.170Z,-2.76
2023-02-08T00:17:24.665Z,-2.68
2023-02-08T00:19:52.240Z,-2.50
2023-02-08T00:22:19.413Z,-2.45
2023-02-08T00:24:46.838Z,-2.21
2023-02-08T00:27:14.051Z,-2.68
2023-02-08T00:29:41.185Z,-2.13
2023-02-08T00:32:08.638Z,-1.90
2023-02-08T00:34:35.848Z,-1.67
2023-02-08T00:37:03.049Z,-1.55
2023-02-08T00:39:30.535Z,-2.06
2023-02-08T00:41:57.784Z,-1.38
2023-02-08T00:44:24.970Z,-2.03
2023-02-08T00:46:52.541Z,-1.67
2023-02-08T00:49:19.725Z,-1.91
2023-02-08T00:51:46.884Z,-0.98
2023-02-08T00:54:15.149Z,-1.59
2023-02-08T00:56:42.344Z,-1.18
2023-02-08T00:59:09.680Z,-2.33
2023-02-08T01:01:37.371Z,-2.20
2023-02-08T01:04:04.703Z,-2.02
2023-02-08T01:06:31.954Z,-1.66
2023-02-08T01:08:59.400Z,0.29
2023-02-08T01:11:26.912Z,-0.85
2023-02-08T01:13:55.800Z,1.11
2023-02-08T01:16:24.405Z,2.34
2023-02-08T01:18:52.119Z,2.86
2023-02-08T01:21:20.283Z,1.18
2023-02-08T01:23:47.810Z,2.00
2023-02-08T01:26:15.487Z,3.10
2023-02-08T01:28:42.706Z,0.42
2023-02-08T01:31:14.370Z,3.26
2023-02-08T01:33:41.773Z,3.50
2023-02-08T01:36:10.085Z,1.21
2023-02-08T01:38:37.713Z,2.69
2023-02-08T01:41:05.264Z,2.51
2023-02-08T01:43:34.097Z,0.70
2023-02-08T01:46:01.692Z,0.29
2023-02-08T01:48:33.397Z,-0.76
2023-02-08T01:51:06.580Z,-0.32
2023-02-08T01:53:35.550Z,-0.88
2023-02-08T01:56:08.012Z,-0.80
2023-02-08T01:58:39.792Z,-1.41
2023-02-08T02:01:07.539Z,-1.16
2023-02-08T02:03:35.280Z,-1.01
2023-02-08T02:06:08.838Z,-0.33
2023-02-08T02:08:40.453Z,-1.08
2023-02-08T02:11:07.914Z,0.14
2023-02-08T02:13:36.997Z,1.06
2023-02-08T02:16:05.029Z,3.12
2023-02-08T02:18:33.079Z,1.81
2023-02-08T02:21:27.627Z,-0.25
2023-02-08T02:24:23.490Z,2.69
2023-02-08T02:27:09.624Z,4.46
2023-02-08T02:29:37.181Z,5.94
2023-02-08T02:32:13.710Z,1.63
2023-02-08T02:34:46.137Z,1.64
2023-02-08T02:37:29.679Z,1.59
2023-02-08T02:40:00.137Z,3.70
2023-02-08T02:42:52.008Z,2.22
2023-02-08T02:45:25.962Z,2.20
2023-02-08T02:47:56.085Z,2.24
2023-02-08T02:50:25.221Z,3.24
2023-02-08T02:53:12.685Z,0.34
2023-02-08T02:55:41.427Z,-0.14
2023-02-08T02:58:08.854Z,3.03
2023-02-08T03:00:36.095Z,-0.03
2023-02-08T03:03:03.767Z,0.05
2023-02-08T03:05:30.923Z,-0.53
2023-02-08T03:08:10.767Z,-0.50
2023-02-08T03:10:44.318Z,-0.16
2023-02-08T03:13:14.498Z,1.29
2023-02-08T03:15:47.788Z,2.83
2023-02-08T03:18:33.788Z,1.10
2023-02-08T03:21:12.523Z,3.04
2023-02-08T03:23:58.562Z,3.98
2023-02-08T03:26:34.600Z,3.87
2023-02-08T03:29:08.648Z,3.51
2023-02-08T03:31:42.290Z,3.83
2023-02-08T03:34:19.835Z,5.06
2023-02-08T03:36:50.358Z,3.46
2023-02-08T03:39:20.022Z,5.28
2023-02-08T03:41:47.985Z,5.84
2023-02-08T03:44:16.631Z,5.04
2023-02-08T03:46:49.799Z,5.80
2023-02-08T03:49:19.066Z,4.46
2023-02-08T03:51:46.199Z,5.35
2023-02-08T03:54:15.917Z,6.96
2023-02-08T03:56:45.297Z,5.62
2023-02-08T03:59:13.738Z,2.47
2023-02-08T04:02:01.135Z,2.77
2023-02-08T04:04:34.200Z,2.90
2023-02-08T04:07:01.390Z,2.62
2023-02-08T04:09:28.992Z,4.45
2023-02-08T04:11:56.174Z,2.30
2023-02-08T04:14:23.409Z,1.03
2023-02-08T04:16:50.940Z,1.34
2023-02-08T04:19:18.092Z,1.39
2023-02-08T04:21:45.225Z,1.47
2023-02-08T04:24:12.730Z,1.08
2023-02-08T04:26:39.854Z,1.67
2023-02-08T04:29:06.995Z,1.87
2023-02-08T04:31:34.506Z,3.05
2023-02-08T04:34:02.752Z,3.65
2023-02-08T04:36:29.923Z,3.97
2023-02-08T04:38:57.671Z,2.97
2023-02-08T04:41:25.017Z,5.34
2023-02-08T04:43:53.701Z,4.58
2023-02-08T04:46:23.739Z,5.61
2023-02-08T04:48:50.899Z,4.44
2023-02-08T04:51:18.129Z,5.42
2023-02-08T04:53:45.608Z,3.59
2023-02-08T04:56:12.746Z,4.94
2023-02-08T04:58:39.904Z,4.01
2023-02-08T05:01:07.833Z,5.69
2023-02-08T05:03:35.398Z,5.50
2023-02-08T05:06:02.522Z,4.19
2023-02-08T05:08:29.952Z,4.22
2023-02-08T05:10:57.283Z,4.91
2023-02-08T05:13:24.435Z,5.09
2023-02-08T05:15:51.885Z,4.31
2023-02-08T05:18:19.081Z,5.51
2023-02-08T05:20:46.288Z,5.49
2023-02-08T05:23:13.758Z,4.55
2023-02-08T05:25:42.217Z,5.22
2023-02-08T05:28:09.421Z,4.62
2023-02-08T05:30:38.097Z,4.97
2023-02-08T05:33:05.285Z,4.56
2023-02-08T05:35:32.440Z,4.75
2023-02-08T05:37:59.842Z,4.10
2023-02-08T05:40:26.969Z,4.46
2023-02-08T05:42:54.105Z,4.16
2023-02-08T05:45:21.571Z,4.57
2023-02-08T05:47:49.025Z,5.90
2023-02-08T05:50:16.568Z,5.78
2023-02-08T05:52:44.156Z,6.59
2023-02-08T05:55:11.382Z,5.32
2023-02-08T05:57:38.522Z,5.92
2023-02-08T06:00:06.250Z,5.53
2023-02-08T06:02:43.373Z,5.43
2023-02-08T06:05:11.225Z,4.73
2023-02-08T06:07:38.379Z,4.49
2023-02-08T06:10:05.932Z,5.50
2023-02-08T06:12:33.377Z,5.53
2023-02-08T06:15:00.711Z,5.97
2023-02-08T06:17:28.138Z,5.13
2023-02-08T06:19:55.573Z,5.49
2023-02-08T06:22:22.733Z,5.55
2023-02-08T06:24:49.953Z,5.10
2023-02-08T06:27:17.473Z,2.88
2023-02-08T06:29:44.693Z,4.57
2023-02-08T06:32:11.963Z,5.39
2023-02-08T06:34:39.622Z,4.08
2023-02-08T06:37:06.952Z,4.13
2023-02-08T06:39:34.207Z,2.67
2023-02-08T06:42:01.710Z,2.94
2023-02-08T06:44:28.841Z,1.33
2023-02-08T06:46:56.016Z,1.69
2023-02-08T06:49:23.448Z,2.63
2023-02-08T06:51:50.616Z,3.83
2023-02-08T06:54:17.915Z,2.08
2023-02-08T06:56:45.372Z,3.40
2023-02-08T06:59:12.653Z,3.41
2023-02-08T07:01:39.861Z,2.88
2023-02-08T07:04:07.340Z,2.25
2023-02-08T07:06:34.582Z,2.97
2023-02-08T07:09:03.448Z,2.64
2023-02-08T07:11:31.361Z,3.19
2023-02-08T07:13:58.684Z,3.47
2023-02-08T07:16:25.863Z,4.36
2023-02-08T07:18:53.507Z,3.83
2023-02-08T07:21:21.668Z,4.67
2023-02-08T07:23:48.861Z,5.37
2023-02-08T07:26:16.292Z,4.22
2023-02-08T07:28:44.109Z,4.45
2023-02-08T07:31:12.520Z,4.71
2023-02-08T07:33:40.168Z,5.21
2023-02-08T07:36:08.932Z,5.15
2023-02-08T07:38:37.532Z,4.97
2023-02-08T07:41:09.618Z,4.67
2023-02-08T07:43:37.575Z,5.19
2023-02-08T07:46:07.748Z,5.76
2023-02-08T07:48:35.521Z,5.12
2023-02-08T07:51:03.305Z,5.08
2023-02-08T07:53:32.079Z,4.88
2023-02-08T07:56:00.108Z,3.89
2023-02-08T07:58:27.609Z,4.58
2023-02-08T08:00:55.410Z,4.49
2023-02-08T08:03:23.133Z,4.53
2023-02-08T08:05:53.110Z,5.01
2023-02-08T08:08:21.956Z,4.66
2023-02-08T08:10:49.625Z,4.87
2023-02-08T08:13:17.056Z,4.36
2023-02-08T08:15:44.578Z,4.68
2023-02-08T08:18:12.311Z,4.58
2023-02-08T08:20:39.877Z,5.16
2023-02-08T08:23:07.507Z,4.46
2023-02-08T08:25:34.949Z,4.06
2023-02-08T08:28:02.175Z,4.64
2023-02-08T08:30:29.434Z,4.48
2023-02-08T08:32:57.023Z,5.06
2023-02-08T08:35:24.253Z,4.96
2023-02-08T08:37:51.463Z,4.84
2023-02-08T08:40:19.131Z,4.38
2023-02-08T08:42:46.268Z,4.82
2023-02-08T08:45:13.437Z,4.74
2023-02-08T08:47:40.930Z,5.14
2023-02-08T08:50:08.432Z,4.59
2023-02-08T08:52:35.598Z,4.63
2023-02-08T08:55:03.171Z,4.40
2023-02-08T08:57:30.569Z,4.95
2023-02-08T08:59:58.146Z,4.47
2023-02-08T09:02:25.567Z,4.38
2023-02-08T09:04:52.955Z,4.39
2023-02-08T09:07:20.165Z,4.62
2023-02-08T09:09:48.084Z,4.86
2023-02-08T09:12:15.915Z,5.32
2023-02-08T09:14:44.795Z,5.32
2023-02-08T09:17:12.422Z,5.04
2023-02-08T09:19:39.668Z,5.12
2023-02-08T09:22:07.612Z,4.97
2023-02-08T09:24:35.432Z,5.59
2023-02-08T09:27:03.512Z,5.46
2023-02-08T09:29:32.844Z,5.46
2023-02-08T09:32:00.550Z,5.82
2023-02-08T09:34:28.352Z,6.06
2023-02-08T09:36:55.792Z,5.63
2023-02-08T09:39:25.601Z,5.65
2023-02-08T09:42:18.079Z,5.70
2023-02-08T09:45:00.789Z,6.35
2023-02-08T09:47:36.498Z,5.61
2023-02-08T09:50:14.005Z,6.33
2023-02-08T09:53:02.175Z,7.44
2023-02-08T09:55:29.873Z,7.25
2023-02-08T09:57:57.886Z,6.06
2023-02-08T10:00:27.853Z,5.96
2023-02-08T10:02:58.363Z,6.95
2023-02-08T10:05:26.996Z,6.90
2023-02-08T10:07:56.306Z,7.29
2023-02-08T10:10:50.346Z,7.16
2023-02-08T10:13:41.049Z,7.76
2023-02-08T10:16:47.005Z,8.23
2023-02-08T10:19:38.576Z,7.78
2023-02-08T10:22:12.336Z,7.86
2023-02-08T10:24:45.773Z,6.95
2023-02-08T10:27:16.437Z,7.03
2023-02-08T10:29:59.198Z,7.43
2023-02-08T10:32:38.538Z,8.04
2023-02-08T10:35:13.946Z,8.25
2023-02-08T10:37:42.019Z,8.27
2023-02-08T10:40:21.100Z,8.62
2023-02-08T10:42:48.932Z,8.22
2023-02-08T10:45:25.341Z,7.94
2023-02-08T10:47:57.040Z,8.25
2023-02-08T10:50:37.738Z,9.14
2023-02-08T10:53:05.733Z,8.56
2023-02-08T10:55:36.563Z,8.36
2023-02-08T10:58:05.532Z,8.48
2023-02-08T11:00:39.923Z,7.86
2023-02-08T11:03:18.878Z,9.15
2023-02-08T11:05:46.667Z,9.34
2023-02-08T11:08:19.472Z,9.00
2023-02-08T11:10:59.347Z,9.34
2023-02-08T11:13:42.482Z,9.45
2023-02-08T11:16:12.734Z,10.19
2023-02-08T11:18:58.546Z,10.59
2023-02-08T11:21:29.777Z,10.43
2023-02-08T11:23:58.651Z,10.28
2023-02-08T11:26:32.669Z,10.30
2023-02-08T11:29:26.465Z,9.93
2023-02-08T11:32:15.511Z,10.56
2023-02-08T11:34:42.884Z,11.44
2023-02-08T11:37:16.678Z,10.14
2023-02-08T11:39:49.791Z,11.07
2023-02-08T11:42:28.243Z,10.77
2023-02-08T11:44:56.967Z,11.24
2023-02-08T11:47:26.673Z,10.19
2023-02-08T11:50:05.865Z,10.88
2023-02-08T11:52:36.664Z,10.82
2023-02-08T11:55:26.406Z,9.96
2023-02-08T11:58:13.450Z,10.89
2023-02-08T12:00:41.478Z,11.67
2023-02-08T12:03:19.633Z,11.65
2023-02-08T12:06:31.825Z,11.67
2023-02-08T12:09:27.582Z,11.21
2023-02-08T12:12:08.588Z,12.18
2023-02-08T12:14:54.926Z,11.72
2023-02-08T12:17:34.131Z,11.77
2023-02-08T12:20:16.885Z,10.87
2023-02-08T12:23:12.870Z,11.18
2023-02-08T12:26:16.156Z,11.18
2023-02-08T12:29:21.258Z,11.42
2023-02-08T12:32:26.433Z,12.53
2023-02-08T12:35:33.119Z,10.87
2023-02-08T12:38:35.045Z,10.62
2023-02-08T12:41:30.421Z,11.05
2023-02-08T12:44:10.262Z,10.67
2023-02-08T12:47:04.566Z,10.05
2023-02-08T12:49:35.829Z,10.88
2023-02-08T12:52:21.902Z,10.40
2023-02-08T12:55:25.916Z,11.39
2023-02-08T12:57:57.976Z,10.57
2023-02-08T13:00:28.530Z,10.74
2023-02-08T13:03:29.719Z,10.58
2023-02-08T13:06:02.881Z,9.94
2023-02-08T13:08:41.676Z,9.28
2023-02-08T13:11:31.222Z,9.55
2023-02-08T13:14:13.567Z,10.06
2023-02-08T13:16:43.032Z,10.81
2023-02-08T13:19:30.442Z,10.93
2023-02-08T13:21:58.276Z,11.17
2023-02-08T13:24:33.884Z,11.38
2023-02-08T13:27:01.461Z,10.33
2023-02-08T13:29:29.656Z,10.80
2023-02-08T13:31:58.664Z,10.46
2023-02-08T13:34:45.234Z,9.86
2023-02-08T13:37:31.454Z,10.73
2023-02-08T13:40:12.834Z,9.96
2023-02-08T13:42:40.054Z,10.32
2023-02-08T13:45:07.872Z,10.97
2023-02-08T13:47:40.695Z,11.17
2023-02-08T13:50:29.145Z,11.21
2023-02-08T13:52:56.608Z,11.45
2023-02-08T13:55:33.627Z,11.78
2023-02-08T13:58:03.936Z,11.29
2023-02-08T14:00:35.006Z,11.01
2023-02-08T14:03:08.459Z,12.04
2023-02-08T14:05:48.997Z,10.29
2023-02-08T14:08:19.561Z,10.43
2023-02-08T14:10:49.842Z,9.57
2023-02-08T14:13:31.697Z,10.10
2023-02-08T14:16:17.874Z,11.06
2023-02-08T14:18:51.947Z,10.68
2023-02-08T14:21:26.271Z,9.08
2023-02-08T14:24:04.127Z,9.37
2023-02-08T14:26:31.519Z,9.54
2023-02-08T14:29:00.294Z,9.32
2023-02-08T14:31:43.523Z,9.28
2023-02-08T14:34:27.093Z,10.18
2023-02-08T14:37:02.064Z,9.60
2023-02-08T14:39:33.355Z,9.62
2023-02-08T14:42:08.952Z,9.11
2023-02-08T14:44:39.633Z,8.97
2023-02-08T14:47:13.584Z,8.83
2023-02-08T14:49:45.053Z,9.54
2023-02-08T14:52:13.616Z,9.24
2023-02-08T14:54:48.783Z,9.07
2023-02-08T14:57:22.678Z,8.74
2023-02-08T14:59:50.183Z,8.39
2023-02-08T15:02:21.682Z,8.65
2023-02-08T15:04:48.867Z,8.49
2023-02-08T15:07:33.486Z,9.07
2023-02-08T15:10:04.819Z,8.79
2023-02-08T15:12:33.243Z,8.02
2023-02-08T15:15:01.234Z,9.07
2023-02-08T15:17:41.512Z,7.93
2023-02-08T15:20:14.289Z,8.70
2023-02-08T15:22:41.455Z,8.70
2023-02-08T15:25:29.956Z,8.51
2023-02-08T15:28:00.029Z,8.97
2023-02-08T15:30:30.705Z,7.88
2023-02-08T15:32:58.034Z,8.25
2023-02-08T15:35:26.048Z,8.38
2023-02-08T15:37:53.939Z,8.33
2023-02-08T15:40:32.793Z,8.84
2023-02-08T15:43:18.220Z,9.21
2023-02-08T15:45:45.867Z,8.94
2023-02-08T15:48:13.672Z,8.89
2023-02-08T15:50:40.910Z,8.57
2023-02-08T15:53:11.278Z,8.69
2023-02-08T15:55:40.175Z,8.82
2023-02-08T15:58:16.654Z,9.06
2023-02-08T16:00:46.018Z,8.13
2023-02-08T16:03:23.863Z,8.80
2023-02-08T16:05:54.188Z,8.39
2023-02-08T16:08:27.256Z,8.69
2023-02-08T16:11:04.213Z,8.79
2023-02-08T16:13:34.769Z,9.05
2023-02-08T16:16:20.844Z,9.04
2023-02-08T16:18:58.477Z,8.87
2023-02-08T16:21:25.942Z,9.11
2023-02-08T16:23:56.766Z,9.66
2023-02-08T16:26:28.924Z,9.28
2023-02-08T16:28:58.091Z,8.90
2023-02-08T16:31:28.475Z,9.08
2023-02-08T16:34:07.751Z,8.84
2023-02-08T16:36:39.640Z,9.18
2023-02-08T16:39:19.512Z,8.79
2023-02-08T16:42:20.647Z,8.68
2023-02-08T16:45:02.049Z,8.80
2023-02-08T16:47:45.003Z,8.78
2023-02-08T16:50:15.926Z,8.80
2023-02-08T16:52:44.337Z,8.96
2023-02-08T16:55:26.569Z,9.00
2023-02-08T16:57:56.587Z,8.67
2023-02-08T17:00:28.925Z,8.66
2023-02-08T17:02:56.923Z,8.62
2023-02-08T17:05:25.744Z,8.70
2023-02-08T17:07:53.462Z,8.72
2023-02-08T17:10:23.584Z,8.71
2023-02-08T17:12:51.335Z,8.64
2023-02-08T17:15:20.960Z,8.62
2023-02-08T17:17:48.556Z,8.51
2023-02-08T17:20:20.562Z,8.44
2023-02-08T17:22:49.308Z,8.27
2023-02-08T17:25:20.729Z,8.43
2023-02-08T17:27:55.909Z,7.96
2023-02-08T17:30:28.269Z,8.40
2023-02-08T17:32:58.654Z,8.21
2023-02-08T17:35:29.858Z,7.92
2023-02-08T17:37:58.898Z,8.01
2023-02-08T17:40:33.072Z,8.14
2023-02-08T17:43:00.930Z,7.54
2023-02-08T17:45:31.579Z,7.26
2023-02-08T17:48:08.931Z,6.50
2023-02-08T17:50:36.783Z,7.45
2023-02-08T17:53:05.108Z,7.48
2023-02-08T17:55:32.997Z,7.65
2023-02-08T17:58:01.156Z,7.64
2023-02-08T18:00:29.178Z,7.57
2023-02-08T18:03:03.412Z,7.60
2023-02-08T18:05:31.035Z,6.83
2023-02-08T18:07:59.091Z,7.76
2023-02-08T18:10:28.402Z,7.53
2023-02-08T18:12:57.659Z,7.84
2023-02-08T18:15:25.678Z,6.53
2023-02-08T18:17:53.114Z,5.72
2023-02-08T18:20:22.332Z,5.67
2023-02-08T18:22:51.055Z,5.72
2023-02-08T18:25:20.659Z,5.76
2023-02-08T18:27:49.208Z,6.01
2023-02-08T18:30:18.113Z,6.91
2023-02-08T18:32:46.154Z,7.25
2023-02-08T18:35:16.161Z,7.25
2023-02-08T18:37:49.950Z,7.25
2023-02-08T18:40:18.321Z,7.42
2023-02-08T18:42:46.880Z,7.27
2023-02-08T18:45:15.128Z,7.26
2023-02-08T18:47:43.364Z,6.46
2023-02-08T18:50:11.907Z,6.29
2023-02-08T18:52:40.011Z,7.02
2023-02-08T18:55:08.577Z,6.10
2023-02-08T18:57:40.171Z,6.59
2023-02-08T19:00:09.794Z,7.11
2023-02-08T19:02:39.601Z,6.80
2023-02-08T19:05:07.910Z,6.72
2023-02-08T19:07:36.194Z,6.67
2023-02-08T19:10:07.697Z,6.88
2023-02-08T19:12:35.606Z,7.12
2023-02-08T19:15:04.890Z,7.17
2023-02-08T19:17:33.930Z,6.82
2023-02-08T19:20:01.922Z,7.01
2023-02-08T19:22:30.510Z,7.13
2023-02-08T19:25:01.705Z,6.81
2023-02-08T19:27:32.730Z,6.84
2023-02-08T19:30:01.103Z,6.69
2023-02-08T19:32:31.649Z,6.88
2023-02-08T19:35:02.305Z,6.66
2023-02-08T19:37:32.096Z,6.24
2023-02-08T19:40:00.700Z,6.93
2023-02-08T19:42:30.127Z,6.91
2023-02-08T19:45:01.077Z,7.01
2023-02-08T19:47:48.380Z,5.98
2023-02-08T19:50:18.280Z,6.06
2023-02-08T19:52:46.656Z,5.09
2023-02-08T19:55:16.258Z,4.64
2023-02-08T19:57:44.592Z,3.29
2023-02-08T20:00:23.108Z,1.70
2023-02-08T20:02:53.131Z,1.45
2023-02-08T20:05:21.368Z,1.47
2023-02-08T20:07:50.227Z,1.99
2023-02-08T20:10:18.764Z,2.76
2023-02-08T20:12:47.164Z,3.23
2023-02-08T20:15:15.604Z,3.31
2023-02-08T20:17:45.006Z,2.42
2023-02-08T20:20:13.402Z,1.41
2023-02-08T20:22:42.226Z,0.61
2023-02-08T20:25:14.296Z,-0.01
2023-02-08T20:27:42.429Z,0.56
2023-02-08T20:30:13.874Z,1.02
2023-02-08T20:32:44.036Z,1.56
2023-02-08T20:35:12.350Z,1.24
2023-02-08T20:37:40.922Z,0.75
2023-02-08T20:40:09.951Z,0.24
2023-02-08T20:42:39.038Z,-0.01
2023-02-08T20:45:09.408Z,-0.12
2023-02-08T20:47:46.061Z,0.28
2023-02-08T20:50:20.190Z,0.53
2023-02-08T20:52:49.105Z,1.54
2023-02-08T20:55:17.345Z,2.50
2023-02-08T20:57:45.180Z,2.58
2023-02-08T21:00:13.929Z,3.11
2023-02-08T21:02:42.976Z,3.17
2023-02-08T21:05:10.801Z,3.27
2023-02-08T21:07:40.470Z,2.92
2023-02-08T21:10:08.536Z,2.31
2023-02-08T21:12:36.581Z,2.51
2023-02-08T21:15:05.551Z,1.90
2023-02-08T21:17:34.757Z,1.77
2023-02-08T21:20:02.249Z,2.89
2023-02-08T21:22:29.510Z,1.59
2023-02-08T21:24:57.783Z,0.92
2023-02-08T21:27:25.357Z,0.29
2023-02-08T21:29:52.994Z,1.30
2023-02-08T21:32:20.741Z,2.40
2023-02-08T21:34:49.391Z,2.44
2023-02-08T21:37:16.965Z,2.34
2023-02-08T21:39:47.219Z,2.50
2023-02-08T21:42:14.822Z,1.57
2023-02-08T21:44:42.138Z,0.46
2023-02-08T21:47:09.924Z,0.34
2023-02-08T21:50:15.963Z,-0.35
2023-02-08T21:53:02.214Z,0.02
2023-02-08T21:55:29.577Z,0.41
2023-02-08T21:57:57.062Z,0.63
2023-02-08T22:00:24.321Z,2.45
2023-02-08T22:02:51.928Z,3.54
2023-02-08T22:05:38.029Z,3.45
2023-02-08T22:08:05.469Z,3.50
2023-02-08T22:10:33.465Z,3.43
2023-02-08T22:13:00.854Z,3.60
2023-02-08T22:15:28.753Z,3.22
2023-02-08T22:17:56.856Z,3.04
2023-02-08T22:20:24.148Z,2.38
2023-02-08T22:22:53.116Z,1.93
2023-02-08T22:25:22.515Z,3.66
2023-02-08T22:27:49.735Z,3.17
2023-02-08T22:30:17.910Z,2.84
2023-02-08T22:32:45.902Z,2.53
2023-02-08T22:35:13.120Z,2.77
2023-02-08T22:37:40.545Z,3.52
2023-02-08T22:40:08.402Z,3.39
2023-02-08T22:42:35.647Z,4.05
2023-02-08T22:45:03.166Z,3.01
2023-02-08T22:47:30.493Z,3.56
2023-02-08T22:49:58.562Z,2.95
2023-02-08T22:52:26.217Z,3.11
2023-02-08T22:54:53.425Z,3.42
2023-02-08T22:57:20.558Z,2.78
2023-02-08T22:59:48.181Z,2.84
2023-02-08T23:02:17.877Z,2.15
2023-02-08T23:04:45.062Z,1.89
2023-02-08T23:07:12.686Z,2.02
2023-02-08T23:09:39.862Z,0.60
2023-02-08T23:12:07.112Z,2.69
2023-02-08T23:14:35.570Z,2.39
2023-02-08T23:17:02.801Z,2.06
2023-02-08T23:19:29.945Z,1.07
2023-02-08T23:21:57.868Z,0.84
2023-02-08T23:24:25.161Z,0.88
2023-02-08T23:26:52.455Z,1.54
2023-02-08T23:29:20.049Z,1.57
2023-02-08T23:31:47.326Z,1.42
2023-02-08T23:34:14.534Z,1.08
2023-02-08T23:36:41.960Z,0.70
2023-02-08T23:39:09.145Z,0.50
2023-02-08T23:41:36.435Z,1.06
2023-02-08T23:44:03.908Z,1.32
2023-02-08T23:46:31.083Z,2.27
2023-02-08T23:48:58.216Z,2.04
2023-02-08T23:51:25.845Z,2.26
2023-02-08T23:53:54.183Z,1.54
2023-02-08T23:56:21.348Z,-0.36
2023-02-08T23:58:50.024Z,0.65
